Time;durP1;ratioP1;P1;durP2;ratioP2;P2;SDS_P1;SDS_P2;PMS_P1;PMS_P2;Temp;Humidity;BMP_temperature;BMP_pressure;BME280_temperature;BME280_humidity;BME280_pressure;Samples;Min_cycle;Max_cycle;Signal;HPM_P1;HPM_P2
2023/06/27 00:00:40;;;;;;;17.95;10.50;;;;;;;;;;5071888;28;20046;-52
2023/06/27 00:03:06;;;;;;;18.08;9.43;;;;;;;;;;5071842;28;20028;-52
2023/06/27 00:05:34;;;;;;;17.20;9.00;;;;;;;;;;5071329;28;20476;-53
2023/06/27 00:08:00;;;;;;;17.13;9.20;;;;;;;;;;5071746;28;20103;-56
2023/06/27 00:10:26;;;;;;;16.02;9.23;;;;;;;;;;5071792;28;20052;-54
2023/06/27 00:12:53;;;;;;;17.60;9.90;;;;;;;;;;5071582;28;20020;-53
2023/06/27 00:15:19;;;;;;;17.15;9.60;;;;;;;;;;5071224;28;20027;-52
2023/06/27 00:17:46;;;;;;;16.23;8.48;;;;;;;;;;5071479;28;20484;-55
2023/06/27 00:20:12;;;;;;;19.60;9.48;;;;;;;;;;5071717;28;20025;-53
2023/06/27 00:22:39;;;;;;;16.00;8.80;;;;;;;;;;5071153;28;20128;-54
2023/06/27 00:25:06;;;;;;;16.38;9.32;;;;;;;;;;5071436;28;20016;-55
2023/06/27 00:27:33;;;;;;;19.10;10.93;;;;;;;;;;5071585;28;20082;-55
2023/06/27 00:29:59;;;;;;;16.58;9.13;;;;;;;;;;5071741;28;20404;-51
2023/06/27 00:32:25;;;;;;;16.75;8.55;;;;;;;;;;5069652;28;20075;-54
2023/06/27 00:34:51;;;;;;;19.20;9.48;;;;;;;;;;5070995;28;20032;-55
2023/06/27 00:37:17;;;;;;;16.45;8.45;;;;;;;;;;5071425;28;20489;-52
2023/06/27 00:39:43;;;;;;;18.58;8.73;;;;;;;;;;5071612;28;20032;-49
2023/06/27 00:42:09;;;;;;;16.88;8.35;;;;;;;;;;5071308;28;20025;-50
2023/06/27 00:44:35;;;;;;;17.30;8.95;;;;;;;;;;5071067;28;20485;-50
2023/06/27 00:47:01;;;;;;;16.13;8.25;;;;;;;;;;5071482;28;20045;-50
2023/06/27 00:49:28;;;;;;;15.80;8.85;;;;;;;;;;5071265;28;20021;-51
2023/06/27 00:51:55;;;;;;;17.42;8.82;;;;;;;;;;5071206;28;20047;-53
2023/06/27 00:54:21;;;;;;;16.20;9.85;;;;;;;;;;5071022;28;20384;-56
2023/06/27 00:56:49;;;;;;;14.70;8.20;;;;;;;;;;5071380;28;20021;-56
2023/06/27 00:59:15;;;;;;;15.10;8.73;;;;;;;;;;5071461;28;20039;-56
2023/06/27 01:01:42;;;;;;;15.48;8.50;;;;;;;;;;5071407;28;20028;-55
2023/06/27 01:04:08;;;;;;;16.02;8.77;;;;;;;;;;5071056;28;20435;-54
2023/06/27 01:06:54;;;;;;;17.92;8.77;;;;;;;;;;5068330;28;20090;-52
2023/06/27 01:09:26;;;;;;;18.55;8.55;;;;;;;;;;5061635;28;20047;-55
2023/06/27 01:11:58;;;;;;;15.82;8.00;;;;;;;;;;5067518;28;20071;-56
2023/06/27 01:14:25;;;;;;;15.68;8.50;;;;;;;;;;5051133;28;20029;-52
2023/06/27 01:16:51;;;;;;;16.52;9.07;;;;;;;;;;5051093;28;20025;-55
2023/06/27 01:19:21;;;;;;;15.63;8.43;;;;;;;;;;5053606;28;20033;-57
2023/06/27 01:21:49;;;;;;;19.58;8.88;;;;;;;;;;5062407;28;20033;-51
2023/06/27 01:24:15;;;;;;;19.42;9.27;;;;;;;;;;5071057;28;20059;-52
2023/06/27 01:26:41;;;;;;;15.25;8.98;;;;;;;;;;5071165;28;20056;-54
2023/06/27 01:29:07;;;;;;;16.08;8.80;;;;;;;;;;5071065;28;20048;-55
2023/06/27 01:31:40;;;;;;;16.85;8.93;;;;;;;;;;5071366;28;20025;-50
2023/06/27 01:34:14;;;;;;;15.23;8.48;;;;;;;;;;5070743;28;20012;-55
2023/06/27 01:36:50;;;;;;;17.02;9.48;;;;;;;;;;5070867;28;20157;-52
2023/06/27 01:39:19;;;;;;;15.95;8.57;;;;;;;;;;5062517;28;20504;-54
2023/06/27 01:41:47;;;;;;;16.42;8.90;;;;;;;;;;5070782;28;20027;-50
2023/06/27 01:44:14;;;;;;;16.88;8.75;;;;;;;;;;5072877;28;20481;-55
2023/06/27 01:46:41;;;;;;;17.15;8.48;;;;;;;;;;5074453;28;20480;-50
2023/06/27 01:49:08;;;;;;;17.48;8.95;;;;;;;;;;5074486;28;20028;-57
2023/06/27 01:51:34;;;;;;;18.70;8.88;;;;;;;;;;5073281;28;20427;-50
2023/06/27 01:54:00;;;;;;;19.20;9.77;;;;;;;;;;5074165;28;20017;-54
2023/06/27 01:56:27;;;;;;;16.02;8.57;;;;;;;;;;5072943;28;20024;-55
2023/06/27 01:58:53;;;;;;;17.20;8.50;;;;;;;;;;5074223;28;20043;-56
2023/06/27 02:01:19;;;;;;;18.30;8.15;;;;;;;;;;5074343;28;20037;-56
2023/06/27 02:03:45;;;;;;;17.83;8.85;;;;;;;;;;5073934;28;20104;-51
2023/06/27 02:06:11;;;;;;;17.83;8.35;;;;;;;;;;5073973;28;20500;-51
2023/06/27 02:08:37;;;;;;;15.48;8.40;;;;;;;;;;5074004;28;20024;-53
2023/06/27 02:11:03;;;;;;;16.88;8.50;;;;;;;;;;5074129;28;20016;-51
2023/06/27 02:13:29;;;;;;;17.40;8.75;;;;;;;;;;5073648;28;20024;-53
2023/06/27 02:15:55;;;;;;;17.10;8.82;;;;;;;;;;5073767;28;20017;-53
2023/06/27 02:18:21;;;;;;;17.20;8.80;;;;;;;;;;5072723;28;20078;-49
2023/06/27 02:20:47;;;;;;;17.90;8.38;;;;;;;;;;5073892;28;20393;-54
2023/06/27 02:23:13;;;;;;;17.13;8.60;;;;;;;;;;5073561;28;20043;-54
2023/06/27 02:25:43;;;;;;;18.38;8.23;;;;;;;;;;5073582;28;20511;-55
2023/06/27 02:28:09;;;;;;;17.02;8.77;;;;;;;;;;5073622;28;20024;-55
2023/06/27 02:30:35;;;;;;;17.17;8.55;;;;;;;;;;5073715;28;20496;-54
2023/06/27 02:33:01;;;;;;;16.42;8.73;;;;;;;;;;5072726;28;20044;-57
2023/06/27 02:35:27;;;;;;;15.68;8.38;;;;;;;;;;5073042;28;20504;-56
2023/06/27 02:37:53;;;;;;;16.63;9.35;;;;;;;;;;5065433;28;20147;-61
2023/06/27 02:40:18;;;;;;;36.00;10.18;;;;;;;;;;5072566;28;20493;-59
2023/06/27 02:42:44;;;;;;;19.60;10.43;;;;;;;;;;5063519;28;20036;-55
2023/06/27 02:45:11;;;;;;;17.00;9.68;;;;;;;;;;5072247;28;20511;-53
2023/06/27 02:47:37;;;;;;;14.98;8.45;;;;;;;;;;5065158;28;20108;-54
2023/06/27 02:50:03;;;;;;;17.40;8.50;;;;;;;;;;5073252;28;20115;-53
2023/06/27 02:52:29;;;;;;;16.38;8.35;;;;;;;;;;5072999;28;20150;-55
2023/06/27 02:54:55;;;;;;;16.65;9.38;;;;;;;;;;5064380;28;20357;-53
2023/06/27 02:57:21;;;;;;;18.80;8.25;;;;;;;;;;5073218;28;20025;-54
2023/06/27 02:59:47;;;;;;;16.63;9.07;;;;;;;;;;5073392;28;20032;-54
2023/06/27 03:02:13;;;;;;;18.40;9.15;;;;;;;;;;5073158;28;20025;-57
2023/06/27 03:04:39;;;;;;;17.13;8.70;;;;;;;;;;5072906;28;20027;-56
2023/06/27 03:07:05;;;;;;;17.60;9.18;;;;;;;;;;5073070;28;20020;-55
2023/06/27 03:09:32;;;;;;;17.08;8.90;;;;;;;;;;5072121;28;20104;-54
2023/06/27 03:11:58;;;;;;;16.75;9.15;;;;;;;;;;5053098;28;20096;-53
2023/06/27 03:14:24;;;;;;;24.60;9.48;;;;;;;;;;5052829;28;20489;-57
2023/06/27 03:16:50;;;;;;;16.40;9.07;;;;;;;;;;5052837;28;20078;-58
2023/06/27 03:19:16;;;;;;;16.50;8.80;;;;;;;;;;5051297;28;20116;-56
2023/06/27 03:21:42;;;;;;;16.73;9.25;;;;;;;;;;5052427;28;20955;-57
2023/06/27 03:24:08;;;;;;;18.27;9.40;;;;;;;;;;5052341;28;20046;-50
2023/06/27 03:26:34;;;;;;;15.98;9.02;;;;;;;;;;5052268;28;20059;-55
2023/06/27 03:29:00;;;;;;;16.80;9.02;;;;;;;;;;5052480;28;20076;-51
2023/06/27 03:31:26;;;;;;;15.90;8.52;;;;;;;;;;5052483;28;20469;-51
2023/06/27 03:33:54;;;;;;;17.75;9.05;;;;;;;;;;5052448;28;20036;-52
2023/06/27 03:36:20;;;;;;;17.25;8.82;;;;;;;;;;5054194;28;20047;-53
2023/06/27 03:38:48;;;;;;;17.38;9.25;;;;;;;;;;5063469;28;20112;-51
2023/06/27 03:41:14;;;;;;;17.20;9.20;;;;;;;;;;5072330;28;20044;-53
2023/06/27 03:43:40;;;;;;;20.73;9.27;;;;;;;;;;5072153;28;20399;-53
2023/06/27 03:46:06;;;;;;;18.33;9.63;;;;;;;;;;5071653;28;20123;-53
2023/06/27 03:48:32;;;;;;;17.13;9.13;;;;;;;;;;5071962;28;20104;-54
2023/06/27 03:50:58;;;;;;;16.67;8.32;;;;;;;;;;5070623;28;20362;-55
2023/06/27 03:53:24;;;;;;;19.33;9.45;;;;;;;;;;5071782;28;20104;-55
2023/06/27 03:55:50;;;;;;;16.63;8.60;;;;;;;;;;5071990;28;20025;-55
2023/06/27 03:58:16;;;;;;;19.10;9.15;;;;;;;;;;5071870;28;20051;-55
2023/06/27 04:00:43;;;;;;;17.98;8.25;;;;;;;;;;5072337;28;20070;-56
2023/06/27 04:03:08;;;;;;;16.70;9.23;;;;;;;;;;5072129;28;20083;-56
2023/06/27 04:05:34;;;;;;;17.88;9.73;;;;;;;;;;5070894;28;20025;-56
2023/06/27 04:08:00;;;;;;;20.73;9.27;;;;;;;;;;5071343;28;20021;-57
2023/06/27 04:10:26;;;;;;;20.45;10.70;;;;;;;;;;5071659;28;20024;-56
2023/06/27 04:12:53;;;;;;;17.90;9.15;;;;;;;;;;5071668;28;20025;-55
2023/06/27 04:15:19;;;;;;;17.48;9.70;;;;;;;;;;5071684;28;20036;-56
2023/06/27 04:17:45;;;;;;;21.80;9.90;;;;;;;;;;5071825;28;20024;-58
2023/06/27 04:20:12;;;;;;;20.80;10.40;;;;;;;;;;5072707;28;20020;-54
2023/06/27 04:22:38;;;;;;;16.58;9.60;;;;;;;;;;5070341;28;20034;-52
2023/06/27 04:25:07;;;;;;;17.20;8.93;;;;;;;;;;5071272;28;20385;-54
2023/06/27 04:27:33;;;;;;;18.63;9.73;;;;;;;;;;5071582;28;20028;-57
2023/06/27 04:29:59;;;;;;;18.00;8.93;;;;;;;;;;5071452;28;20075;-57
2023/06/27 04:32:25;;;;;;;19.02;9.57;;;;;;;;;;5071480;28;20388;-56
2023/06/27 04:34:51;;;;;;;17.80;9.75;;;;;;;;;;5070841;28;20112;-54
2023/06/27 04:37:18;;;;;;;20.17;9.57;;;;;;;;;;5071136;28;20024;-57
2023/06/27 04:39:44;;;;;;;18.15;9.50;;;;;;;;;;5071755;28;20112;-56
2023/06/27 04:42:10;;;;;;;18.15;10.02;;;;;;;;;;5071442;28;20052;-58
2023/06/27 04:44:37;;;;;;;19.30;10.23;;;;;;;;;;5069842;28;20021;-56
2023/06/27 04:47:03;;;;;;;19.55;10.20;;;;;;;;;;5071385;28;20090;-58
2023/06/27 04:49:29;;;;;;;16.90;10.23;;;;;;;;;;5071254;28;20025;-53
2023/06/27 04:51:56;;;;;;;19.00;10.20;;;;;;;;;;5071347;28;20017;-55
2023/06/27 04:54:22;;;;;;;18.85;10.65;;;;;;;;;;5069848;28;20179;-56
2023/06/27 04:56:48;;;;;;;18.98;10.40;;;;;;;;;;5070996;28;20112;-56
2023/06/27 04:59:14;;;;;;;17.20;9.80;;;;;;;;;;5071365;28;20025;-55
2023/06/27 05:01:40;;;;;;;19.13;9.80;;;;;;;;;;5070951;28;20044;-56
2023/06/27 05:04:06;;;;;;;18.60;10.43;;;;;;;;;;5070909;28;20056;-54
2023/06/27 05:06:32;;;;;;;19.90;11.20;;;;;;;;;;5071192;28;20024;-52
2023/06/27 05:08:58;;;;;;;19.33;9.90;;;;;;;;;;5071017;28;20029;-55
2023/06/27 05:11:24;;;;;;;18.95;9.98;;;;;;;;;;5071695;28;20031;-53
2023/06/27 05:13:50;;;;;;;18.10;10.73;;;;;;;;;;5070946;28;20028;-56
2023/06/27 05:16:16;;;;;;;18.85;10.30;;;;;;;;;;5070863;28;20043;-54
2023/06/27 05:18:42;;;;;;;19.63;10.45;;;;;;;;;;5073942;28;20031;-54
2023/06/27 05:21:09;;;;;;;34.47;10.93;;;;;;;;;;5073613;28;20067;-55
2023/06/27 05:23:35;;;;;;;18.70;10.80;;;;;;;;;;5074022;28;20024;-53
2023/06/27 05:26:01;;;;;;;20.65;10.82;;;;;;;;;;5074407;28;20029;-57
2023/06/27 05:28:27;;;;;;;18.50;10.45;;;;;;;;;;5074321;28;20036;-53
2023/06/27 05:30:53;;;;;;;19.30;10.52;;;;;;;;;;5074509;28;20035;-55
2023/06/27 05:33:19;;;;;;;22.52;12.05;;;;;;;;;;5075338;28;20016;-54
2023/06/27 05:35:45;;;;;;;19.85;11.13;;;;;;;;;;5074292;28;20024;-57
2023/06/27 05:38:11;;;;;;;19.92;10.80;;;;;;;;;;5074572;28;20107;-56
2023/06/27 05:40:37;;;;;;;21.98;11.18;;;;;;;;;;5074637;28;20385;-51
2023/06/27 05:43:03;;;;;;;23.48;11.13;;;;;;;;;;5073010;28;20024;-54
2023/06/27 05:45:29;;;;;;;20.55;10.70;;;;;;;;;;5074388;28;20396;-52
2023/06/27 05:47:55;;;;;;;21.50;11.13;;;;;;;;;;5074184;28;20028;-54
2023/06/27 05:50:21;;;;;;;19.88;11.27;;;;;;;;;;5073964;28;20098;-55
2023/06/27 05:52:47;;;;;;;20.27;11.30;;;;;;;;;;5073322;28;20020;-59
2023/06/27 05:55:13;;;;;;;22.33;11.13;;;;;;;;;;5066725;28;20503;-56
2023/06/27 05:57:39;;;;;;;19.33;11.45;;;;;;;;;;5065606;28;20028;-55
2023/06/27 06:00:10;;;;;;;20.13;11.63;;;;;;;;;;5068511;28;20033;-57
2023/06/27 06:02:37;;;;;;;22.95;11.70;;;;;;;;;;5054188;28;20059;-56
2023/06/27 06:05:03;;;;;;;20.33;11.05;;;;;;;;;;5073622;28;20020;-53
2023/06/27 06:07:29;;;;;;;22.65;11.60;;;;;;;;;;5072370;28;20013;-56
2023/06/27 06:09:55;;;;;;;20.08;11.52;;;;;;;;;;5072914;28;20025;-55
2023/06/27 06:12:21;;;;;;;19.60;11.10;;;;;;;;;;5064689;28;20025;-54
2023/06/27 06:14:47;;;;;;;21.10;11.50;;;;;;;;;;5073204;28;20096;-55
2023/06/27 06:17:13;;;;;;;26.77;11.43;;;;;;;;;;5072232;28;20020;-52
2023/06/27 06:19:39;;;;;;;23.13;11.18;;;;;;;;;;5073802;28;20077;-53
2023/06/27 06:22:05;;;;;;;20.10;11.93;;;;;;;;;;5070290;28;20516;-55
2023/06/27 06:24:31;;;;;;;24.80;11.88;;;;;;;;;;5072081;28;20029;-57
2023/06/27 06:26:57;;;;;;;24.27;12.20;;;;;;;;;;5061713;28;20025;-57
2023/06/27 06:29:23;;;;;;;24.60;11.50;;;;;;;;;;5052345;28;20166;-57
2023/06/27 06:31:49;;;;;;;23.00;11.85;;;;;;;;;;5069703;28;20073;-52
2023/06/27 06:34:15;;;;;;;20.40;11.38;;;;;;;;;;5072964;28;20506;-55
2023/06/27 06:36:41;;;;;;;24.50;12.70;;;;;;;;;;5073266;28;20097;-55
2023/06/27 06:39:07;;;;;;;23.20;12.02;;;;;;;;;;5066534;28;20029;-52
2023/06/27 06:41:33;;;;;;;20.25;11.63;;;;;;;;;;5053073;28;20036;-55
2023/06/27 06:43:59;;;;;;;24.40;12.85;;;;;;;;;;5052933;28;20022;-57
2023/06/27 06:46:25;;;;;;;24.65;12.90;;;;;;;;;;5052952;28;20029;-56
2023/06/27 06:48:51;;;;;;;20.92;12.10;;;;;;;;;;5051164;28;20021;-54
2023/06/27 06:51:17;;;;;;;22.45;12.38;;;;;;;;;;5052438;28;20473;-55
2023/06/27 06:53:43;;;;;;;23.00;12.32;;;;;;;;;;5052662;28;20033;-54
2023/06/27 06:56:09;;;;;;;22.63;12.05;;;;;;;;;;5058550;28;20111;-55
2023/06/27 06:58:36;;;;;;;23.50;12.05;;;;;;;;;;5073003;28;20032;-54
2023/06/27 07:01:02;;;;;;;19.80;12.05;;;;;;;;;;5072599;28;20112;-54
2023/06/27 07:03:28;;;;;;;21.85;11.70;;;;;;;;;;5072460;28;20095;-55
2023/06/27 07:05:54;;;;;;;23.27;12.25;;;;;;;;;;5072372;28;20552;-54
2023/06/27 07:08:20;;;;;;;22.15;12.55;;;;;;;;;;5072474;28;20032;-55
2023/06/27 07:10:46;;;;;;;21.90;12.43;;;;;;;;;;5072475;28;20431;-56
2023/06/27 07:13:12;;;;;;;21.25;12.55;;;;;;;;;;5070930;28;20044;-55
2023/06/27 07:15:38;;;;;;;19.90;12.15;;;;;;;;;;5072123;28;20481;-58
2023/06/27 07:18:04;;;;;;;21.40;12.23;;;;;;;;;;5072489;28;20037;-54
2023/06/27 07:20:30;;;;;;;20.20;11.48;;;;;;;;;;5072449;28;20024;-55
2023/06/27 07:22:56;;;;;;;21.98;12.30;;;;;;;;;;5072121;28;20400;-55
2023/06/27 07:25:22;;;;;;;20.55;11.90;;;;;;;;;;5070894;28;20051;-57
2023/06/27 07:27:48;;;;;;;19.42;12.32;;;;;;;;;;5070828;28;20028;-56
2023/06/27 07:30:15;;;;;;;21.48;12.70;;;;;;;;;;5072018;28;20052;-56
2023/06/27 07:32:41;;;;;;;19.95;13.02;;;;;;;;;;5071948;28;20047;-53
2023/06/27 07:35:07;;;;;;;18.77;12.13;;;;;;;;;;5071913;28;20025;-56
2023/06/27 07:37:33;;;;;;;17.55;11.48;;;;;;;;;;5072242;28;20047;-46
2023/06/27 07:39:59;;;;;;;18.70;12.30;;;;;;;;;;5071937;28;20032;-48
2023/06/27 07:42:26;;;;;;;19.20;12.55;;;;;;;;;;5071615;28;20139;-47
2023/06/27 07:44:52;;;;;;;18.38;11.93;;;;;;;;;;5072208;28;20032;-49
2023/06/27 07:47:18;;;;;;;28.23;13.00;;;;;;;;;;5072324;28;20024;-48
2023/06/27 07:49:44;;;;;;;18.67;12.48;;;;;;;;;;5072001;28;20089;-51
2023/06/27 07:52:10;;;;;;;19.25;12.25;;;;;;;;;;5071883;28;20042;-49
2023/06/27 07:54:36;;;;;;;30.88;12.82;;;;;;;;;;5071442;28;20096;-52
2023/06/27 07:57:02;;;;;;;19.20;12.25;;;;;;;;;;5071649;28;20047;-48
2023/06/27 07:59:28;;;;;;;18.75;11.57;;;;;;;;;;5071757;28;20025;-48
2023/06/27 08:01:55;;;;;;;20.52;12.50;;;;;;;;;;5071591;28;20183;-50
2023/06/27 08:04:21;;;;;;;21.65;12.80;;;;;;;;;;5071414;28;20025;-50
2023/06/27 08:06:47;;;;;;;21.00;12.23;;;;;;;;;;5071561;28;20036;-49
2023/06/27 08:09:13;;;;;;;20.85;12.35;;;;;;;;;;5071269;28;20036;-52
2023/06/27 08:11:40;;;;;;;22.23;13.52;;;;;;;;;;5071197;28;20489;-50
2023/06/27 08:14:06;;;;;;;26.30;13.95;;;;;;;;;;5071521;28;20488;-48
2023/06/27 08:16:35;;;;;;;20.17;11.82;;;;;;;;;;5071449;28;20029;-50
2023/06/27 08:19:02;;;;;;;23.63;12.65;;;;;;;;;;5071654;28;20100;-49
2023/06/27 08:21:28;;;;;;;22.55;12.55;;;;;;;;;;5069846;28;20032;-47
2023/06/27 08:23:55;;;;;;;21.33;12.05;;;;;;;;;;5051409;28;20083;-47
2023/06/27 08:26:21;;;;;;;19.98;11.93;;;;;;;;;;5060928;28;20052;-51
2023/06/27 08:28:47;;;;;;;22.30;12.55;;;;;;;;;;5064947;28;20445;-46
2023/06/27 08:31:13;;;;;;;21.63;12.35;;;;;;;;;;5069776;28;20431;-53
2023/06/27 08:33:39;;;;;;;21.95;12.32;;;;;;;;;;5071095;28;20025;-51
2023/06/27 08:36:06;;;;;;;18.73;11.85;;;;;;;;;;5070902;28;20024;-49
2023/06/27 08:38:32;;;;;;;22.92;12.18;;;;;;;;;;5071159;28;20032;-51
2023/06/27 08:40:58;;;;;;;21.17;12.15;;;;;;;;;;5070972;28;20111;-48
2023/06/27 08:43:25;;;;;;;21.15;13.15;;;;;;;;;;5070964;28;20103;-47
2023/06/27 08:45:52;;;;;;;21.80;12.90;;;;;;;;;;5070935;28;20025;-45
2023/06/27 08:48:18;;;;;;;20.73;12.88;;;;;;;;;;5070931;28;20036;-57
2023/06/27 08:50:45;;;;;;;19.67;12.38;;;;;;;;;;5071432;28;20024;-54
2023/06/27 08:53:14;;;;;;;19.30;12.35;;;;;;;;;;5073219;28;20495;-59
2023/06/27 08:55:51;;;;;;;19.88;12.80;;;;;;;;;;5073547;28;20021;-59
2023/06/27 08:58:19;;;;;;;18.85;11.88;;;;;;;;;;5075082;28;20103;-58
2023/06/27 09:00:46;;;;;;;18.55;11.98;;;;;;;;;;5075023;28;20020;-54
2023/06/27 09:03:12;;;;;;;21.65;13.23;;;;;;;;;;5073611;28;20028;-60
2023/06/27 09:05:38;;;;;;;18.05;12.27;;;;;;;;;;5074821;28;20020;-59
2023/06/27 09:08:05;;;;;;;19.50;12.70;;;;;;;;;;5074665;28;20127;-58
2023/06/27 09:10:31;;;;;;;19.42;12.48;;;;;;;;;;5074705;28;20039;-59
2023/06/27 09:12:57;;;;;;;18.90;13.43;;;;;;;;;;5074668;28;20028;-58
2023/06/27 09:15:23;;;;;;;19.10;12.07;;;;;;;;;;5074376;28;20025;-59
2023/06/27 09:17:50;;;;;;;18.67;12.10;;;;;;;;;;5073238;28;20040;-58
2023/06/27 09:20:19;;;;;;;18.10;12.05;;;;;;;;;;5074072;28;20476;-55
2023/06/27 09:22:45;;;;;;;16.58;11.68;;;;;;;;;;5074163;28;20059;-57
2023/06/27 09:25:13;;;;;;;18.42;12.80;;;;;;;;;;5074197;28;20469;-59
2023/06/27 09:27:40;;;;;;;20.52;12.23;;;;;;;;;;5074392;28;20024;-58
2023/06/27 09:30:06;;;;;;;18.38;12.50;;;;;;;;;;5074307;28;20025;-59
2023/06/27 09:32:32;;;;;;;19.23;12.55;;;;;;;;;;5075266;28;20392;-60
2023/06/27 09:35:03;;;;;;;18.17;12.13;;;;;;;;;;5074224;28;20032;-60
2023/06/27 09:37:31;;;;;;;21.27;12.38;;;;;;;;;;5074324;28;20027;-60
2023/06/27 09:39:57;;;;;;;19.20;12.27;;;;;;;;;;5074228;28;20099;-54
2023/06/27 09:42:23;;;;;;;22.77;12.40;;;;;;;;;;5071463;28;20270;-60
2023/06/27 09:44:49;;;;;;;22.65;12.52;;;;;;;;;;5059523;28;20037;-59
2023/06/27 09:47:15;;;;;;;18.80;12.93;;;;;;;;;;5068034;28;20047;-58
2023/06/27 09:49:44;;;;;;;17.27;12.10;;;;;;;;;;5063457;28;20521;-57
2023/06/27 09:52:11;;;;;;;19.38;12.98;;;;;;;;;;5054249;28;20024;-56
2023/06/27 09:54:43;;;;;;;17.88;12.52;;;;;;;;;;5053784;28;20550;-58
2023/06/27 09:57:16;;;;;;;22.60;13.13;;;;;;;;;;5053958;28;20029;-57
2023/06/27 09:59:42;;;;;;;17.38;12.60;;;;;;;;;;5061655;28;20024;-58
2023/06/27 10:02:15;;;;;;;18.38;12.75;;;;;;;;;;5065148;28;20112;-56
2023/06/27 10:04:41;;;;;;;19.40;12.38;;;;;;;;;;5072191;28;20056;-56
2023/06/27 10:07:13;;;;;;;17.45;12.75;;;;;;;;;;5073654;28;20036;-57
2023/06/27 10:09:39;;;;;;;19.15;12.70;;;;;;;;;;5072263;28;20029;-58
2023/06/27 10:12:07;;;;;;;16.58;12.50;;;;;;;;;;5073587;28;20029;-59
2023/06/27 10:14:33;;;;;;;19.53;12.67;;;;;;;;;;5072098;28;20029;-61
2023/06/27 10:17:02;;;;;;;21.25;12.35;;;;;;;;;;5073923;28;20816;-48
2023/06/27 10:19:31;;;;;;;17.95;13.10;;;;;;;;;;5073470;28;20032;-51
2023/06/27 10:21:59;;;;;;;20.60;13.93;;;;;;;;;;5073370;28;20346;-52
2023/06/27 10:24:25;;;;;;;17.50;12.80;;;;;;;;;;5071935;28;20082;-50
2023/06/27 10:26:51;;;;;;;17.02;11.95;;;;;;;;;;5073205;28;20025;-64
2023/06/27 10:29:17;;;;;;;20.02;12.90;;;;;;;;;;5073365;28;20036;-54
2023/06/27 10:31:49;;;;;;;19.35;13.00;;;;;;;;;;5073385;28;20402;-56
2023/06/27 10:34:24;;;;;;;19.15;12.85;;;;;;;;;;5072816;28;20016;-52
2023/06/27 10:36:58;;;;;;;20.77;12.93;;;;;;;;;;5064466;28;20052;-52
2023/06/27 10:39:36;;;;;;;17.77;12.57;;;;;;;;;;5073159;28;20082;-56
2023/06/27 10:42:04;;;;;;;19.00;13.20;;;;;;;;;;5073117;28;20095;-53
2023/06/27 10:44:30;;;;;;;18.67;13.00;;;;;;;;;;5073068;28;20032;-54
2023/06/27 10:47:14;;;;;;;17.45;13.10;;;;;;;;;;5072979;28;20294;-57
2023/06/27 10:49:40;;;;;;;18.17;13.23;;;;;;;;;;5072969;28;20035;-54
2023/06/27 10:52:08;;;;;;;19.90;13.35;;;;;;;;;;5071505;28;20021;-52
2023/06/27 10:54:34;;;;;;;18.60;13.00;;;;;;;;;;5072798;28;20107;-56
2023/06/27 10:57:00;;;;;;;18.38;12.50;;;;;;;;;;5072325;28;20496;-56
2023/06/27 10:59:26;;;;;;;20.77;13.52;;;;;;;;;;5073026;28;20097;-55
2023/06/27 11:01:53;;;;;;;18.27;13.10;;;;;;;;;;5071738;28;20032;-55
2023/06/27 11:04:26;;;;;;;17.83;12.80;;;;;;;;;;5072011;28;20115;-54
2023/06/27 11:06:59;;;;;;;17.15;12.75;;;;;;;;;;5072525;28;20028;-53
2023/06/27 11:09:25;;;;;;;17.45;12.68;;;;;;;;;;5072512;28;20414;-57
2023/06/27 11:12:11;;;;;;;18.08;12.18;;;;;;;;;;5072431;28;20048;-57
2023/06/27 11:14:41;;;;;;;18.45;12.93;;;;;;;;;;5072421;28;20103;-53
2023/06/27 11:17:08;;;;;;;17.10;13.15;;;;;;;;;;5072847;28;20032;-56
2023/06/27 11:19:35;;;;;;;16.80;12.43;;;;;;;;;;5072242;28;20025;-56
2023/06/27 11:22:01;;;;;;;17.13;12.60;;;;;;;;;;5072096;28;20024;-58
2023/06/27 11:24:29;;;;;;;18.27;12.90;;;;;;;;;;5071008;28;20029;-56
2023/06/27 11:26:55;;;;;;;16.45;12.70;;;;;;;;;;5073173;28;20036;-53
2023/06/27 11:29:22;;;;;;;21.02;12.70;;;;;;;;;;5073159;28;20033;-53
2023/06/27 11:31:49;;;;;;;17.90;12.65;;;;;;;;;;5072822;28;20025;-56
2023/06/27 11:34:15;;;;;;;17.83;13.95;;;;;;;;;;5072506;28;20068;-56
2023/06/27 11:36:42;;;;;;;18.33;13.77;;;;;;;;;;5071991;28;20036;-52
2023/06/27 11:39:10;;;;;;;20.70;13.25;;;;;;;;;;5072671;28;20028;-55
2023/06/27 11:41:36;;;;;;;;;;;;;;;;;;5072956;28;20039;-57
2023/06/27 11:44:02;;;;;;;19.27;13.80;;;;;;;;;;5073028;28;19904;-56
2023/06/27 11:46:28;;;;;;;16.98;12.60;;;;;;;;;;5072109;28;20499;-57
2023/06/27 11:48:54;;;;;;;17.73;13.00;;;;;;;;;;5071949;28;20032;-58
2023/06/27 11:51:20;;;;;;;17.33;12.52;;;;;;;;;;5071965;28;20547;-55
2023/06/27 11:53:50;;;;;;;18.27;12.68;;;;;;;;;;5071773;28;20028;-56
2023/06/27 11:56:16;;;;;;;17.40;13.02;;;;;;;;;;5071835;28;20044;-56
2023/06/27 11:58:42;;;;;;;16.90;13.02;;;;;;;;;;5071949;28;20028;-55
2023/06/27 12:01:12;;;;;;;18.60;13.30;;;;;;;;;;5071907;28;20024;-55
2023/06/27 12:03:38;;;;;;;18.90;13.30;;;;;;;;;;5071648;28;20489;-53
2023/06/27 12:06:04;;;;;;;18.50;13.45;;;;;;;;;;5071224;28;20034;-57
2023/06/27 12:08:37;;;;;;;21.45;14.70;;;;;;;;;;5071772;28;20028;-55
2023/06/27 12:11:03;;;;;;;25.17;21.15;;;;;;;;;;5070253;28;20021;-53
2023/06/27 12:13:33;;;;;;;21.60;19.08;;;;;;;;;;5063361;28;20021;-54
2023/06/27 12:15:59;;;;;;;18.38;16.33;;;;;;;;;;5070867;28;20569;-54
2023/06/27 12:18:27;;;;;;;22.33;16.23;;;;;;;;;;5062927;28;20024;-55
2023/06/27 12:20:53;;;;;;;18.90;14.50;;;;;;;;;;5051047;28;20017;-56
2023/06/27 12:23:20;;;;;;;16.88;12.32;;;;;;;;;;5050553;28;20519;-57
2023/06/27 12:25:46;;;;;;;18.20;12.48;;;;;;;;;;5057997;28;20036;-60
2023/06/27 12:28:13;;;;;;;18.13;12.48;;;;;;;;;;4714948;28;9999769;-62
2023/06/27 12:30:39;;;;;;;17.33;11.77;;;;;;;;;;5063862;28;20028;-61
2023/06/27 12:33:08;;;;;;;18.88;12.23;;;;;;;;;;5052174;28;20687;-59
2023/06/27 12:35:35;;;;;;;19.33;12.68;;;;;;;;;;5066555;28;20028;-60
2023/06/27 12:38:00;;;;;;;18.00;12.55;;;;;;;;;;5050251;28;20045;-60
2023/06/27 12:40:27;;;;;;;17.95;12.35;;;;;;;;;;5048770;28;20102;-60
2023/06/27 12:42:53;;;;;;;19.42;12.55;;;;;;;;;;5046568;28;20029;-61
2023/06/27 12:45:19;;;;;;;17.58;12.82;;;;;;;;;;5049106;28;20025;-62
2023/06/27 12:47:46;;;;;;;18.63;13.07;;;;;;;;;;5068360;28;20016;-61
2023/06/27 12:50:15;;;;;;;18.83;13.32;;;;;;;;;;5070196;28;20074;-60
2023/06/27 12:52:48;;;;;;;17.60;13.40;;;;;;;;;;5070847;28;20450;-60
2023/06/27 12:55:18;;;;;;;18.98;13.20;;;;;;;;;;5070431;28;20027;-61
2023/06/27 12:57:44;;;;;;;19.90;13.50;;;;;;;;;;5069856;28;20095;-60
2023/06/27 13:00:11;;;;;;;17.65;12.50;;;;;;;;;;5069333;28;20024;-59
2023/06/27 13:02:37;;;;;;;17.80;12.13;;;;;;;;;;5069629;28;20460;-59
2023/06/27 13:05:07;;;;;;;18.08;12.43;;;;;;;;;;5049313;28;20034;-61
2023/06/27 13:07:33;;;;;;;16.65;12.32;;;;;;;;;;5051129;28;20052;-59
2023/06/27 13:09:59;;;;;;;17.83;12.70;;;;;;;;;;5062070;28;20068;-57
2023/06/27 13:12:25;;;;;;;17.20;13.35;;;;;;;;;;5069467;28;20762;-59
2023/06/27 13:14:52;;;;;;;15.77;12.30;;;;;;;;;;5058503;28;20025;-58
2023/06/27 13:17:18;;;;;;;15.98;11.70;;;;;;;;;;5050606;28;20024;-56
2023/06/27 13:19:44;;;;;;;16.45;11.73;;;;;;;;;;5051509;28;20064;-60
2023/06/27 13:22:10;;;;;;;16.60;11.98;;;;;;;;;;5067820;28;20477;-58
2023/06/27 13:24:36;;;;;;;16.80;11.80;;;;;;;;;;5061970;28;20036;-56
2023/06/27 13:27:03;;;;;;;16.08;11.80;;;;;;;;;;5070318;28;20039;-54
2023/06/27 13:29:29;;;;;;;16.67;11.80;;;;;;;;;;4716685;28;10000051;-63
2023/06/27 13:31:56;;;;;;;18.58;12.43;;;;;;;;;;5067286;28;20052;-61
2023/06/27 13:34:22;;;;;;;17.00;11.93;;;;;;;;;;5056339;28;20120;-63
2023/06/27 13:36:48;;;;;;;18.67;12.25;;;;;;;;;;5056662;28;20081;-64
2023/06/27 13:39:15;;;;;;;15.82;12.38;;;;;;;;;;5055318;28;20020;-63
2023/06/27 13:41:41;;;;;;;16.73;12.20;;;;;;;;;;5071226;28;20025;-62
2023/06/27 13:44:09;;;;;;;15.85;11.95;;;;;;;;;;5070582;28;20035;-61
2023/06/27 13:46:35;;;;;;;16.38;11.98;;;;;;;;;;5070585;28;20071;-61
2023/06/27 13:49:01;;;;;;;16.27;12.43;;;;;;;;;;5069255;28;20029;-60
2023/06/27 13:51:27;;;;;;;18.70;12.50;;;;;;;;;;5069766;28;20025;-64
2023/06/27 13:53:53;;;;;;;16.52;12.35;;;;;;;;;;5070836;28;20033;-61
2023/06/27 13:56:19;;;;;;;18.42;13.00;;;;;;;;;;5070814;28;20035;-60
2023/06/27 13:58:45;;;;;;;18.27;12.38;;;;;;;;;;5071550;28;20479;-59
2023/06/27 14:01:11;;;;;;;16.13;12.07;;;;;;;;;;5072441;28;20116;-62
2023/06/27 14:03:39;;;;;;;16.63;11.82;;;;;;;;;;5072122;28;20036;-59
2023/06/27 14:06:05;;;;;;;17.48;12.38;;;;;;;;;;5073039;28;20051;-61
2023/06/27 14:08:31;;;;;;;17.70;12.73;;;;;;;;;;5071823;28;20068;-59
2023/06/27 14:10:57;;;;;;;16.67;12.88;;;;;;;;;;5068928;28;20434;-61
2023/06/27 14:13:23;;;;;;;17.95;13.27;;;;;;;;;;5062653;28;20108;-62
2023/06/27 14:15:49;;;;;;;17.40;12.95;;;;;;;;;;5069781;28;20392;-63
2023/06/27 14:18:15;;;;;;;15.98;13.10;;;;;;;;;;5074003;28;20472;-61